x

Cape Lookout, Nc (clkn7) Weather Station

1:00pm - Wed 24th May 2017 All times are EDT. -4 hours from GMT.

  • Wind
    7mph, 7mph gusts
  • Air Temp 73°f
  • Sea Pressure 1005.9mb
  • Cape Lookout, Nc
  • Cape Lookout, Nc

More Historic Weather Station data

Upgrade to MSW Pro to gain access to the past 30 days of data for over 8000 Wavebouys and Weather Stations around the globe.

Join Pro

Comparision Forecast

View Surf forecast
   
Wed 05/24 1:00pm 7 7 mph 1005.9mb 73f
12:00pm 8 9 mph 1006.1mb 73f
11:00am 3 5 mph 1006.1mb 73f
10:00am 3 5 mph 1006.4mb 72f
9:00am 6 6 mph 1005.8mb 72f
8:00am 9 11 mph 1005mb 71f
7:00am 13 14 mph 1004.6mb 71f
6:00am 15 17 mph 1004mb 72f
5:00am 18 21 mph 1003.8mb 72f
4:00am 14 18 mph 1004mb 72f
3:00am 13 15 mph 1003.8mb 73f
2:00am 16 21 mph 1004.8mb 72f
1:00am 14 17 mph 1005.2mb 71f
12:00am 18 23 mph 1005.7mb 72f
Tue 05/23 11:00pm 15 21 mph 1005.8mb 73f
10:00pm 15 18 mph 1006.2mb 74f
9:00pm 13 21 mph 1006.5mb 74f
8:00pm 14 20 mph 1007.1mb 72f
7:00pm 20 26 mph 1007mb 73f
6:00pm 10 14 mph 1006.7mb 75f
5:00pm 17 18 mph 1006.5mb 76f
4:00pm 16 20 mph 1007.1mb 77f
3:00pm 16 21 mph 1007.6mb 76f
2:00pm 17 22 mph 1008.3mb 74f
1:00pm 16 21 mph 1009mb 72f
12:00pm 17 22 mph 1010.2mb 74f
11:00am 20 24 mph 1010.5mb 73f
10:00am 13 15 mph 1011.3mb 71f
9:00am 15 17 mph 1011.7mb 73f
8:00am 15 17 mph 1011.5mb 72f
7:00am 16 21 mph 1012.1mb 72f
6:00am 14 17 mph 1012mb 73f
5:00am 7 8 mph 1011.8mb 73f
4:00am 3 5 mph 1012.1mb 73f
3:00am 5 6 mph 1012.7mb 72f
2:00am 6 8 mph 1013.6mb 72f
1:00am 8 10 mph 1014.5mb 73f
12:00am 10 13 mph 1015mb 76f
Mon 05/22 11:00pm 8 10 mph 1015.2mb 76f
10:00pm 9 11 mph 1015.5mb 76f
9:00pm 7 9 mph 1015.5mb 76f
8:00pm 11 15 mph 1014.9mb 76f
7:00pm 11 15 mph 1014.3mb 76f
6:00pm 16 20 mph 1013.9mb 77f
5:00pm 15 18 mph 1014.2mb 78f
4:00pm 15 17 mph 1014.9mb 78f
3:00pm 15 21 mph 1015.6mb 78f
2:00pm 14 21 mph 1016.4mb 79f
1:00pm 15 16 mph 1017.2mb 78f
12:00pm 15 18 mph 1017.9mb 78f
11:00am 10 13 mph 1018.3mb 77f
10:00am 8 9 mph 1018.6mb 76f
9:00am 5 6 mph 1018.9mb 74f
8:00am 2 3 mph 1018.7mb 73f
7:00am 1 2 mph 1018.7mb 73f
6:00am 1 2 mph 1018.4mb 72f
5:00am 1 1 mph 1018mb 72f
4:00am 2 2 mph 1018.5mb 72f
3:00am 5 5 mph 1018.4mb 72f
2:00am 5 5 mph 1018.9mb 72f
1:00am 2 2 mph 1019.3mb 72f
12:00am 5 6 mph 1019.9mb 72f
Sun 05/21 11:00pm 8 9 mph 1020.5mb 72f
10:00pm 10 11 mph 1020.8mb 72f
9:00pm 11 13 mph 1020.6mb 72f
8:00pm 15 16 mph 1020.5mb 73f
7:00pm 16 17 mph 1020mb 73f
6:00pm 10 13 mph 1020.3mb 73f
5:00pm 11 13 mph 1020.8mb 73f
4:00pm 16 17 mph 1021.1mb 72f
3:00pm 14 16 mph 1021.8mb 71f
2:00pm 14 16 mph 1022.3mb 70f
1:00pm 15 16 mph 1022.4mb 70f
12:00pm 11 14 mph 1023mb 70f
11:00am 14 16 mph 1022.9mb 69f
10:00am 13 16 mph 1023.2mb 69f
9:00am 11 15 mph 1023.3mb 67f
8:00am 10 14 mph 1023mb 67f
7:00am 9 11 mph 1022.9mb 67f
6:00am 8 10 mph 1022.2mb 67f
5:00am 11 14 mph 1021.6mb 67f
4:00am 14 16 mph 1021.4mb 68f
3:00am 17 18 mph 1021.2mb 69f
2:00am 17 18 mph 1021.8mb 69f
1:00am 17 20 mph 1022.3mb 69f
12:00am 17 18 mph 1022.3mb 70f
Sat 05/20 11:00pm 20 21 mph 1022.2mb 70f
10:00pm 18 20 mph 1021.8mb 71f
9:00pm 8 9 mph 1020.6mb 73f
8:00pm 7 7 mph 1019.8mb 75f
7:00pm 22 26 mph 1020.8mb 76f